CST,Max TemperatureF,Mean TemperatureF,Min TemperatureF,Max Dew PointF,MeanDew PointF,Min DewpointF,Max Humidity, Mean Humidity, Min Humidity, Max Sea Level PressureIn, Mean Sea Level PressureIn, Min Sea Level PressureIn, Max VisibilityMiles, Mean VisibilityMiles, Min VisibilityMiles, Max Wind SpeedMPH, Mean Wind SpeedMPH, Max Gust SpeedMPH,PrecipitationIn, CloudCover, Events, WindDirDegrees
2013-1-1,10,5,0,0,-3,-6,85,73,62,30.23,30.16,30.11,10,10,10,9,3,,0.00,1,,242
2013-1-2,21,14,8,14,9,0,86,69,46,30.12,30.08,30.03,10,10,5,14,7,,0.00,7,Snow,192
2013-1-3,24,18,12,18,14,5,80,75,73,30.19,30.12,30.03,10,8,4,15,8,18,0.00,6,Snow,248
2013-1-4,26,17,8,14,10,3,93,72,59,30.17,30.11,30.05,10,10,3,17,12,17,0.00,0,,218
2013-1-5,33,20,8,32,21,3,100,88,69,30.19,30.02,29.84,10,7,2,17,7,23,0.00,3,Snow,187
2013-1-6,33,22,12,32,19,9,100,77,64,30.26,30.07,29.84,10,9,2,13,9,20,0.00,4,,265
2013-1-7,33,22,12,23,17,9,92,73,55,30.25,30.10,30.01,10,10,5,28,12,34,0.00,0,,190
2013-1-8,35,27,19,28,25,19,100,84,70,30.09,30.02,29.91,10,7,0,21,9,28,0.00,2,Fog-Snow,162
2013-1-9,35,28,21,30,23,18,87,71,56,30.44,30.19,29.90,10,10,10,23,16,31,0.00,0,,231
2013-1-10,37,28,19,34,26,16,100,84,64,30.48,30.25,29.86,10,8,2,18,9,24,0.08,3,Rain,115
2013-1-11,42,38,33,43,37,34,100,100,87,29.87,29.69,29.60,7,1,0,16,8,,0.01,7,Fog-Rain-Snow,151
2013-1-12,46,34,23,43,27,14,100,74,59,29.98,29.81,29.60,10,10,7,25,15,34,0.00,3,Snow,229
2013-1-13,23,18,14,16,7,3,80,64,58,30.17,30.02,29.90,10,10,2,14,8,22,0.00,8,Snow,282
2013-1-14,23,16,8,9,5,1,79,67,50,30.42,30.36,30.19,10,10,10,10,7,17,0.00,0,,232
2013-1-15,28,19,10,12,9,5,85,67,47,30.40,30.28,30.07,10,10,10,14,5,17,0.00,0,,187
2013-1-16,32,24,17,28,17,9,87,70,55,30.05,29.88,29.74,10,10,7,22,13,28,0.00,5,Snow,228
2013-1-17,26,19,12,10,2,-6,73,51,35,30.38,30.27,30.06,10,10,10,13,8,18,0.00,0,,291
2013-1-18,37,24,10,30,20,5,85,73,60,30.39,30.06,29.79,10,10,4,29,10,40,0.00,2,Snow,185
2013-1-19,41,28,14,30,25,-2,87,70,33,29.90,29.74,29.63,10,10,1,36,12,46,0.00,4,Snow,223
2013-1-20,14,10,5,-4,-5,-8,66,54,41,30.28,30.19,29.95,10,10,10,20,11,36,0.00,3,,284
2013-1-21,8,2,-4,1,-11,-17,73,56,43,30.25,30.16,30.09,10,9,1,16,8,26,0.00,4,Snow,290
2013-1-22,5,0,-5,-8,-13,-18,66,56,43,30.32,30.29,30.24,10,10,10,14,7,18,0.00,0,,279
2013-1-23,17,9,1,12,1,-8,86,66,48,30.39,30.19,30.05,10,7,0,18,7,28,0.00,6,Snow,253
2013-1-24,17,8,0,7,-4,-9,67,60,52,30.62,30.50,30.32,10,10,3,13,7,21,0.00,2,Snow,358
2013-1-25,23,19,14,16,10,1,86,68,46,30.31,30.07,29.91,10,9,2,15,11,21,0.00,7,Snow,220
2013-1-26,23,13,3,10,6,0,85,66,54,30.37,30.31,30.17,10,10,10,10,5,,0.00,2,,261
2013-1-27,32,28,23,32,22,10,100,80,59,30.32,30.12,29.85,10,6,0,17,11,28,0.12,7,Snow-Thunderstorm,136
2013-1-28,35,32,32,34,32,30,100,97,87,29.95,29.87,29.77,10,6,0,15,5,21,0.00,6,Fog-Snow,129
2013-1-29,51,42,33,52,41,32,100,100,87,29.76,29.57,29.47,10,2,0,20,11,24,0.87,8,Fog-Rain-Thunderstorm,184
2013-1-30,33,24,15,34,25,9,100,93,73,29.57,29.40,29.30,10,4,0,20,13,26,0.07,8,Rain-Snow,333
2013-1-31,15,8,1,9,1,-8,79,67,57,30.09,29.82,29.57,10,8,1,16,11,25,0.00,6,Snow,275